sensor_id;sensor_type;location;lat;lon;timestamp;temperature;humidity
46416;DHT22;32620;51.704;7.822;2023-01-26T00:01:52;-1.10;99.90
46416;DHT22;32620;51.704;7.822;2023-01-26T00:04:18;-1.10;99.90
46416;DHT22;32620;51.704;7.822;2023-01-26T00:06:43;-1.10;99.90
46416;DHT22;32620;51.704;7.822;2023-01-26T00:09:12;-1.20;99.90
46416;DHT22;32620;51.704;7.822;2023-01-26T00:11:39;-1.20;99.90
46416;DHT22;32620;51.704;7.822;2023-01-26T00:14:04;-1.20;99.90
46416;DHT22;32620;51.704;7.822;2023-01-26T00:16:30;-1.20;99.90
46416;DHT22;32620;51.704;7.822;2023-01-26T00:18:55;-1.20;99.90
46416;DHT22;32620;51.704;7.822;2023-01-26T00:21:22;-1.20;99.90
46416;DHT22;32620;51.704;7.822;2023-01-26T00:23:49;-1.20;99.90
46416;DHT22;32620;51.704;7.822;2023-01-26T00:26:18;-1.20;99.90
46416;DHT22;32620;51.704;7.822;2023-01-26T00:28:44;-1.20;99.90
46416;DHT22;32620;51.704;7.822;2023-01-26T00:31:13;-1.20;99.90
46416;DHT22;32620;51.704;7.822;2023-01-26T00:33:38;-1.20;99.90
46416;DHT22;32620;51.704;7.822;2023-01-26T00:36:04;-1.20;99.90
46416;DHT22;32620;51.704;7.822;2023-01-26T00:38:30;-1.20;99.90
46416;DHT22;32620;51.704;7.822;2023-01-26T00:40:56;-1.20;99.90
46416;DHT22;32620;51.704;7.822;2023-01-26T00:43:21;-1.20;99.90
46416;DHT22;32620;51.704;7.822;2023-01-26T00:45:47;-1.20;99.90
46416;DHT22;32620;51.704;7.822;2023-01-26T00:48:13;-1.20;99.90
46416;DHT22;32620;51.704;7.822;2023-01-26T00:50:38;-1.10;99.90
46416;DHT22;32620;51.704;7.822;2023-01-26T00:53:04;-1.10;99.90
46416;DHT22;32620;51.704;7.822;2023-01-26T00:55:30;-1.10;99.90
46416;DHT22;32620;51.704;7.822;2023-01-26T00:58:02;-1.20;99.90
46416;DHT22;32620;51.704;7.822;2023-01-26T01:00:28;-1.10;99.90
46416;DHT22;32620;51.704;7.822;2023-01-26T01:02:54;-1.10;99.90
46416;DHT22;32620;51.704;7.822;2023-01-26T01:05:23;-1.10;99.90
46416;DHT22;32620;51.704;7.822;2023-01-26T01:07:48;-1.10;99.90
46416;DHT22;32620;51.704;7.822;2023-01-26T01:10:14;-1.10;99.90
46416;DHT22;32620;51.704;7.822;2023-01-26T01:12:40;-1.10;99.90
46416;DHT22;32620;51.704;7.822;2023-01-26T01:15:06;-1.10;99.90
46416;DHT22;32620;51.704;7.822;2023-01-26T01:17:32;-1.10;99.90
46416;DHT22;32620;51.704;7.822;2023-01-26T01:19:58;-1.10;99.90
46416;DHT22;32620;51.704;7.822;2023-01-26T01:22:23;-1.10;99.90
46416;DHT22;32620;51.704;7.822;2023-01-26T01:24:49;-1.10;99.90
46416;DHT22;32620;51.704;7.822;2023-01-26T01:27:14;-1.10;99.90
46416;DHT22;32620;51.704;7.822;2023-01-26T01:29:40;-1.00;99.90
46416;DHT22;32620;51.704;7.822;2023-01-26T01:32:06;-1.00;99.90
46416;DHT22;32620;51.704;7.822;2023-01-26T01:34:31;-1.00;99.90
46416;DHT22;32620;51.704;7.822;2023-01-26T01:36:57;-1.00;99.90
46416;DHT22;32620;51.704;7.822;2023-01-26T01:39:22;-1.00;99.90
46416;DHT22;32620;51.704;7.822;2023-01-26T01:41:48;-1.00;99.90
46416;DHT22;32620;51.704;7.822;2023-01-26T01:44:17;-1.00;99.90
46416;DHT22;32620;51.704;7.822;2023-01-26T01:46:46;-1.00;99.90
46416;DHT22;32620;51.704;7.822;2023-01-26T01:49:33;-1.10;99.90
46416;DHT22;32620;51.704;7.822;2023-01-26T01:52:07;-1.10;99.90
46416;DHT22;32620;51.704;7.822;2023-01-26T01:54:36;-1.00;99.90
46416;DHT22;32620;51.704;7.822;2023-01-26T01:57:06;-1.00;99.90
46416;DHT22;32620;51.704;7.822;2023-01-26T01:59:43;-1.10;99.90
46416;DHT22;32620;51.704;7.822;2023-01-26T02:02:12;-1.00;99.90
46416;DHT22;32620;51.704;7.822;2023-01-26T02:04:38;-1.00;99.90
46416;DHT22;32620;51.704;7.822;2023-01-26T02:07:04;-1.00;99.90
46416;DHT22;32620;51.704;7.822;2023-01-26T02:09:33;-1.00;99.90
46416;DHT22;32620;51.704;7.822;2023-01-26T02:12:22;-1.00;99.90
46416;DHT22;32620;51.704;7.822;2023-01-26T02:14:51;-0.90;99.90
46416;DHT22;32620;51.704;7.822;2023-01-26T02:17:17;-0.90;99.90
46416;DHT22;32620;51.704;7.822;2023-01-26T02:20:11;-0.90;99.90
46416;DHT22;32620;51.704;7.822;2023-01-26T02:22:47;-0.90;99.90
46416;DHT22;32620;51.704;7.822;2023-01-26T02:25:39;-0.90;99.90
46416;DHT22;32620;51.704;7.822;2023-01-26T02:28:05;-0.90;99.90
46416;DHT22;32620;51.704;7.822;2023-01-26T02:30:31;-0.90;99.90
46416;DHT22;32620;51.704;7.822;2023-01-26T02:32:57;-0.90;99.90
46416;DHT22;32620;51.704;7.822;2023-01-26T02:35:23;-0.90;99.90
46416;DHT22;32620;51.704;7.822;2023-01-26T02:37:48;-0.90;99.90
46416;DHT22;32620;51.704;7.822;2023-01-26T02:40:36;-0.90;99.90
46416;DHT22;32620;51.704;7.822;2023-01-26T02:43:05;-0.90;99.90
46416;DHT22;32620;51.704;7.822;2023-01-26T02:45:32;-0.90;99.90
46416;DHT22;32620;51.704;7.822;2023-01-26T02:47:58;-0.80;99.90
46416;DHT22;32620;51.704;7.822;2023-01-26T02:50:29;-0.80;99.90
46416;DHT22;32620;51.704;7.822;2023-01-26T02:52:55;-0.80;99.90
46416;DHT22;32620;51.704;7.822;2023-01-26T02:55:20;-0.90;99.90
46416;DHT22;32620;51.704;7.822;2023-01-26T02:57:49;-0.80;99.90
46416;DHT22;32620;51.704;7.822;2023-01-26T03:00:18;-0.90;99.90
46416;DHT22;32620;51.704;7.822;2023-01-26T03:02:45;-0.80;99.90
46416;DHT22;32620;51.704;7.822;2023-01-26T03:05:11;-0.80;99.90
46416;DHT22;32620;51.704;7.822;2023-01-26T03:07:37;-0.80;99.90
46416;DHT22;32620;51.704;7.822;2023-01-26T03:10:03;-0.80;99.90
46416;DHT22;32620;51.704;7.822;2023-01-26T03:12:29;-0.80;99.90
46416;DHT22;32620;51.704;7.822;2023-01-26T03:14:54;-0.80;99.90
46416;DHT22;32620;51.704;7.822;2023-01-26T03:17:40;-0.80;99.90
46416;DHT22;32620;51.704;7.822;2023-01-26T03:20:07;-0.80;99.90
46416;DHT22;32620;51.704;7.822;2023-01-26T03:22:53;-0.80;99.90
46416;DHT22;32620;51.704;7.822;2023-01-26T03:25:39;-0.80;99.90
46416;DHT22;32620;51.704;7.822;2023-01-26T03:28:25;-0.80;99.90
46416;DHT22;32620;51.704;7.822;2023-01-26T03:30:53;-0.80;99.90
46416;DHT22;32620;51.704;7.822;2023-01-26T03:33:20;-0.70;99.90
46416;DHT22;32620;51.704;7.822;2023-01-26T03:35:46;-0.70;99.90
46416;DHT22;32620;51.704;7.822;2023-01-26T03:38:12;-0.70;99.90
46416;DHT22;32620;51.704;7.822;2023-01-26T03:40:38;-0.70;99.90
46416;DHT22;32620;51.704;7.822;2023-01-26T03:43:23;-0.70;99.90
46416;DHT22;32620;51.704;7.822;2023-01-26T03:46:08;-0.70;99.90
46416;DHT22;32620;51.704;7.822;2023-01-26T03:48:54;-0.70;99.90
46416;DHT22;32620;51.704;7.822;2023-01-26T03:51:39;-0.70;99.90
46416;DHT22;32620;51.704;7.822;2023-01-26T03:54:25;-0.70;99.90
46416;DHT22;32620;51.704;7.822;2023-01-26T03:57:10;-0.60;99.90
46416;DHT22;32620;51.704;7.822;2023-01-26T03:59:36;-0.70;99.90
46416;DHT22;32620;51.704;7.822;2023-01-26T04:02:05;-0.70;99.90
46416;DHT22;32620;51.704;7.822;2023-01-26T04:04:51;-0.60;99.90
46416;DHT22;32620;51.704;7.822;2023-01-26T04:07:37;-0.60;99.90
46416;DHT22;32620;51.704;7.822;2023-01-26T04:10:26;-0.60;99.90
46416;DHT22;32620;51.704;7.822;2023-01-26T04:12:52;-0.60;99.90
46416;DHT22;32620;51.704;7.822;2023-01-26T04:15:37;-0.60;99.90
46416;DHT22;32620;51.704;7.822;2023-01-26T04:18:23;-0.60;99.90
46416;DHT22;32620;51.704;7.822;2023-01-26T04:21:08;-0.60;99.90
46416;DHT22;32620;51.704;7.822;2023-01-26T04:23:55;-0.60;99.90
46416;DHT22;32620;51.704;7.822;2023-01-26T04:26:23;-0.60;99.90
46416;DHT22;32620;51.704;7.822;2023-01-26T04:28:48;-0.70;99.90
46416;DHT22;32620;51.704;7.822;2023-01-26T04:31:14;-0.70;99.90
46416;DHT22;32620;51.704;7.822;2023-01-26T04:33:41;-0.70;99.90
46416;DHT22;32620;51.704;7.822;2023-01-26T04:36:08;-0.70;99.90
46416;DHT22;32620;51.704;7.822;2023-01-26T04:38:34;-0.70;99.90
46416;DHT22;32620;51.704;7.822;2023-01-26T04:40:59;-0.70;99.90
46416;DHT22;32620;51.704;7.822;2023-01-26T04:43:25;-0.60;99.90
46416;DHT22;32620;51.704;7.822;2023-01-26T04:48:36;-0.60;99.90
46416;DHT22;32620;51.704;7.822;2023-01-26T04:51:04;-0.70;99.90
46416;DHT22;32620;51.704;7.822;2023-01-26T04:53:32;-0.70;99.90
46416;DHT22;32620;51.704;7.822;2023-01-26T04:55:57;-0.60;99.90
46416;DHT22;32620;51.704;7.822;2023-01-26T04:58:23;-0.60;99.90
46416;DHT22;32620;51.704;7.822;2023-01-26T05:00:50;-0.60;99.90
46416;DHT22;32620;51.704;7.822;2023-01-26T05:03:16;-0.60;99.90
46416;DHT22;32620;51.704;7.822;2023-01-26T05:05:42;-0.60;99.90
46416;DHT22;32620;51.704;7.822;2023-01-26T05:08:08;-0.60;99.90
46416;DHT22;32620;51.704;7.822;2023-01-26T05:10:33;-0.60;99.90
46416;DHT22;32620;51.704;7.822;2023-01-26T05:12:59;-0.60;99.90
46416;DHT22;32620;51.704;7.822;2023-01-26T05:15:25;-0.60;99.90
46416;DHT22;32620;51.704;7.822;2023-01-26T05:17:51;-0.60;99.90
46416;DHT22;32620;51.704;7.822;2023-01-26T05:20:16;-0.50;99.90
46416;DHT22;32620;51.704;7.822;2023-01-26T05:22:42;-0.50;99.90
46416;DHT22;32620;51.704;7.822;2023-01-26T05:25:08;-0.50;99.90
46416;DHT22;32620;51.704;7.822;2023-01-26T05:27:34;-0.50;99.90
46416;DHT22;32620;51.704;7.822;2023-01-26T05:29:59;-0.50;99.90
46416;DHT22;32620;51.704;7.822;2023-01-26T05:32:27;-0.50;99.90
46416;DHT22;32620;51.704;7.822;2023-01-26T05:34:53;-0.50;99.90
46416;DHT22;32620;51.704;7.822;2023-01-26T05:37:18;-0.50;99.90
46416;DHT22;32620;51.704;7.822;2023-01-26T05:39:45;-0.50;99.90
46416;DHT22;32620;51.704;7.822;2023-01-26T05:42:11;-0.50;99.90
46416;DHT22;32620;51.704;7.822;2023-01-26T05:44:37;-0.50;99.90
46416;DHT22;32620;51.704;7.822;2023-01-26T05:47:03;-0.60;99.90
46416;DHT22;32620;51.704;7.822;2023-01-26T05:49:29;-0.50;99.90
46416;DHT22;32620;51.704;7.822;2023-01-26T05:51:54;-0.50;99.90
46416;DHT22;32620;51.704;7.822;2023-01-26T05:54:20;-0.50;99.90
46416;DHT22;32620;51.704;7.822;2023-01-26T05:56:46;-0.50;99.90
46416;DHT22;32620;51.704;7.822;2023-01-26T05:59:12;-0.50;99.90
46416;DHT22;32620;51.704;7.822;2023-01-26T06:01:38;-0.50;99.90
46416;DHT22;32620;51.704;7.822;2023-01-26T06:04:04;-0.50;99.90
46416;DHT22;32620;51.704;7.822;2023-01-26T06:06:29;-0.60;99.90
46416;DHT22;32620;51.704;7.822;2023-01-26T06:08:56;-0.50;99.90
46416;DHT22;32620;51.704;7.822;2023-01-26T06:11:21;-0.50;99.90
46416;DHT22;32620;51.704;7.822;2023-01-26T06:13:47;-0.50;99.90
46416;DHT22;32620;51.704;7.822;2023-01-26T06:16:13;-0.50;99.90
46416;DHT22;32620;51.704;7.822;2023-01-26T06:18:38;-0.40;99.90
46416;DHT22;32620;51.704;7.822;2023-01-26T06:21:04;-0.50;99.90
46416;DHT22;32620;51.704;7.822;2023-01-26T06:23:29;-0.50;99.90
46416;DHT22;32620;51.704;7.822;2023-01-26T06:25:59;-0.50;99.90
46416;DHT22;32620;51.704;7.822;2023-01-26T06:28:25;-0.50;99.90
46416;DHT22;32620;51.704;7.822;2023-01-26T06:30:50;-0.50;99.90
46416;DHT22;32620;51.704;7.822;2023-01-26T06:33:17;-0.50;99.90
46416;DHT22;32620;51.704;7.822;2023-01-26T06:35:43;-0.50;99.90
46416;DHT22;32620;51.704;7.822;2023-01-26T06:38:08;-0.50;99.90
46416;DHT22;32620;51.704;7.822;2023-01-26T06:40:34;-0.50;99.90
46416;DHT22;32620;51.704;7.822;2023-01-26T06:42:59;-0.50;99.90
46416;DHT22;32620;51.704;7.822;2023-01-26T06:45:25;-0.50;99.90
46416;DHT22;32620;51.704;7.822;2023-01-26T06:47:50;-0.50;99.90
46416;DHT22;32620;51.704;7.822;2023-01-26T06:50:19;-0.50;99.90
46416;DHT22;32620;51.704;7.822;2023-01-26T06:52:50;-0.50;99.90
46416;DHT22;32620;51.704;7.822;2023-01-26T06:55:21;-0.50;99.90
46416;DHT22;32620;51.704;7.822;2023-01-26T06:57:46;-0.50;99.90
46416;DHT22;32620;51.704;7.822;2023-01-26T07:00:12;-0.50;99.90
46416;DHT22;32620;51.704;7.822;2023-01-26T07:02:38;-0.40;99.90
46416;DHT22;32620;51.704;7.822;2023-01-26T07:05:04;-0.40;99.90
46416;DHT22;32620;51.704;7.822;2023-01-26T07:07:30;-0.40;99.90
46416;DHT22;32620;51.704;7.822;2023-01-26T07:09:55;-0.40;99.90
46416;DHT22;32620;51.704;7.822;2023-01-26T07:12:21;-0.40;99.90
46416;DHT22;32620;51.704;7.822;2023-01-26T07:14:46;-0.40;99.90
46416;DHT22;32620;51.704;7.822;2023-01-26T07:17:12;-0.40;99.90
46416;DHT22;32620;51.704;7.822;2023-01-26T07:19:37;-0.40;99.90
46416;DHT22;32620;51.704;7.822;2023-01-26T07:22:03;-0.40;99.90
46416;DHT22;32620;51.704;7.822;2023-01-26T07:24:29;-0.40;99.90
46416;DHT22;32620;51.704;7.822;2023-01-26T07:26:55;-0.40;99.90
46416;DHT22;32620;51.704;7.822;2023-01-26T07:29:21;-0.40;99.90
46416;DHT22;32620;51.704;7.822;2023-01-26T07:31:47;-0.40;99.90
46416;DHT22;32620;51.704;7.822;2023-01-26T07:34:12;-0.30;99.90
46416;DHT22;32620;51.704;7.822;2023-01-26T07:36:38;-0.30;99.90
46416;DHT22;32620;51.704;7.822;2023-01-26T07:39:04;-0.30;99.90
46416;DHT22;32620;51.704;7.822;2023-01-26T07:41:30;-0.30;99.90
46416;DHT22;32620;51.704;7.822;2023-01-26T07:43:56;-0.30;99.90
46416;DHT22;32620;51.704;7.822;2023-01-26T07:46:21;-0.30;99.90
46416;DHT22;32620;51.704;7.822;2023-01-26T07:48:48;-0.30;99.90
46416;DHT22;32620;51.704;7.822;2023-01-26T07:51:13;-0.30;99.90
46416;DHT22;32620;51.704;7.822;2023-01-26T07:53:39;-0.30;99.90
46416;DHT22;32620;51.704;7.822;2023-01-26T07:58:48;-0.30;99.90
46416;DHT22;32620;51.704;7.822;2023-01-26T08:01:14;-0.20;99.90
46416;DHT22;32620;51.704;7.822;2023-01-26T08:03:40;-0.30;99.90
46416;DHT22;32620;51.704;7.822;2023-01-26T08:06:07;-0.20;99.90
46416;DHT22;32620;51.704;7.822;2023-01-26T08:08:33;-0.20;99.90
46416;DHT22;32620;51.704;7.822;2023-01-26T08:11:00;-0.20;99.90
46416;DHT22;32620;51.704;7.822;2023-01-26T08:13:27;-0.20;99.90
46416;DHT22;32620;51.704;7.822;2023-01-26T08:15:53;-0.20;99.90
46416;DHT22;32620;51.704;7.822;2023-01-26T08:18:19;-0.10;99.90
46416;DHT22;32620;51.704;7.822;2023-01-26T08:20:52;-0.10;99.90
46416;DHT22;32620;51.704;7.822;2023-01-26T08:23:19;-0.10;99.90
46416;DHT22;32620;51.704;7.822;2023-01-26T08:25:45;-0.10;99.90
46416;DHT22;32620;51.704;7.822;2023-01-26T08:28:11;-0.10;99.90
46416;DHT22;32620;51.704;7.822;2023-01-26T08:30:38;-0.10;99.90
46416;DHT22;32620;51.704;7.822;2023-01-26T08:33:04;0.00;99.90
46416;DHT22;32620;51.704;7.822;2023-01-26T08:35:31;-0.10;99.90
46416;DHT22;32620;51.704;7.822;2023-01-26T08:37:57;-0.10;99.90
46416;DHT22;32620;51.704;7.822;2023-01-26T08:40:22;-0.10;99.90
46416;DHT22;32620;51.704;7.822;2023-01-26T08:42:49;0.00;99.90
46416;DHT22;32620;51.704;7.822;2023-01-26T08:45:15;0.00;99.90
46416;DHT22;32620;51.704;7.822;2023-01-26T08:47:41;0.10;99.90
46416;DHT22;32620;51.704;7.822;2023-01-26T08:50:07;0.00;99.90
46416;DHT22;32620;51.704;7.822;2023-01-26T08:52:33;0.00;99.90
46416;DHT22;32620;51.704;7.822;2023-01-26T08:54:58;0.00;99.90
46416;DHT22;32620;51.704;7.822;2023-01-26T08:57:25;0.00;99.90
46416;DHT22;32620;51.704;7.822;2023-01-26T08:59:51;0.00;99.90
46416;DHT22;32620;51.704;7.822;2023-01-26T09:02:17;0.00;99.90
46416;DHT22;32620;51.704;7.822;2023-01-26T09:04:42;0.10;99.90
46416;DHT22;32620;51.704;7.822;2023-01-26T09:07:08;0.10;99.90
46416;DHT22;32620;51.704;7.822;2023-01-26T09:09:34;0.10;99.90
46416;DHT22;32620;51.704;7.822;2023-01-26T09:12:00;0.20;99.90
46416;DHT22;32620;51.704;7.822;2023-01-26T09:14:28;0.20;99.90
46416;DHT22;32620;51.704;7.822;2023-01-26T09:16:54;0.20;99.90
46416;DHT22;32620;51.704;7.822;2023-01-26T09:19:20;0.30;99.90
46416;DHT22;32620;51.704;7.822;2023-01-26T09:21:46;0.30;99.90
46416;DHT22;32620;51.704;7.822;2023-01-26T09:24:11;0.40;99.90
46416;DHT22;32620;51.704;7.822;2023-01-26T09:26:37;0.40;99.90
46416;DHT22;32620;51.704;7.822;2023-01-26T09:29:02;0.40;99.90
46416;DHT22;32620;51.704;7.822;2023-01-26T09:31:28;0.40;99.90
46416;DHT22;32620;51.704;7.822;2023-01-26T09:33:53;0.40;99.90
46416;DHT22;32620;51.704;7.822;2023-01-26T09:36:19;0.40;99.90
46416;DHT22;32620;51.704;7.822;2023-01-26T09:38:45;0.50;99.90
46416;DHT22;32620;51.704;7.822;2023-01-26T09:43:56;0.40;99.90
46416;DHT22;32620;51.704;7.822;2023-01-26T09:47:15;0.30;99.90
46416;DHT22;32620;51.704;7.822;2023-01-26T09:49:50;0.30;99.90
46416;DHT22;32620;51.704;7.822;2023-01-26T09:52:26;0.40;99.90
46416;DHT22;32620;51.704;7.822;2023-01-26T09:54:54;0.30;99.90
46416;DHT22;32620;51.704;7.822;2023-01-26T09:58:08;0.30;99.90
46416;DHT22;32620;51.704;7.822;2023-01-26T10:01:00;0.40;99.90
46416;DHT22;32620;51.704;7.822;2023-01-26T10:06:14;0.40;99.90
46416;DHT22;32620;51.704;7.822;2023-01-26T10:08:45;0.40;99.90
46416;DHT22;32620;51.704;7.822;2023-01-26T10:14:15;0.50;99.90
46416;DHT22;32620;51.704;7.822;2023-01-26T10:16:46;0.50;99.90
46416;DHT22;32620;51.704;7.822;2023-01-26T10:19:23;0.50;99.90
46416;DHT22;32620;51.704;7.822;2023-01-26T10:21:54;0.50;99.90
46416;DHT22;32620;51.704;7.822;2023-01-26T10:24:23;0.50;99.90
46416;DHT22;32620;51.704;7.822;2023-01-26T10:26:52;0.50;99.90
46416;DHT22;32620;51.704;7.822;2023-01-26T10:29:20;0.40;99.90
46416;DHT22;32620;51.704;7.822;2023-01-26T10:31:46;0.50;99.90
46416;DHT22;32620;51.704;7.822;2023-01-26T10:34:16;0.50;99.90
46416;DHT22;32620;51.704;7.822;2023-01-26T10:36:44;0.50;99.90
46416;DHT22;32620;51.704;7.822;2023-01-26T10:39:13;0.60;99.90
46416;DHT22;32620;51.704;7.822;2023-01-26T10:41:39;0.70;99.90
46416;DHT22;32620;51.704;7.822;2023-01-26T10:44:33;0.70;99.90
46416;DHT22;32620;51.704;7.822;2023-01-26T10:47:12;0.70;99.90
46416;DHT22;32620;51.704;7.822;2023-01-26T10:49:38;0.80;99.90
46416;DHT22;32620;51.704;7.822;2023-01-26T10:52:07;0.80;99.90
46416;DHT22;32620;51.704;7.822;2023-01-26T10:54:34;0.90;99.90
46416;DHT22;32620;51.704;7.822;2023-01-26T10:57:04;0.90;99.90
46416;DHT22;32620;51.704;7.822;2023-01-26T10:59:47;1.00;99.90
46416;DHT22;32620;51.704;7.822;2023-01-26T11:07:45;0.90;99.90
46416;DHT22;32620;51.704;7.822;2023-01-26T11:16:13;1.00;99.90
46416;DHT22;32620;51.704;7.822;2023-01-26T11:18:59;1.00;99.90
46416;DHT22;32620;51.704;7.822;2023-01-26T11:21:35;1.00;99.90
46416;DHT22;32620;51.704;7.822;2023-01-26T11:24:14;1.00;99.90
46416;DHT22;32620;51.704;7.822;2023-01-26T11:29:53;0.90;99.90
46416;DHT22;32620;51.704;7.822;2023-01-26T11:33:01;1.00;99.90
46416;DHT22;32620;51.704;7.822;2023-01-26T11:35:38;1.10;99.90
46416;DHT22;32620;51.704;7.822;2023-01-26T11:43:56;1.10;99.90
46416;DHT22;32620;51.704;7.822;2023-01-26T11:46:50;1.10;99.90
46416;DHT22;32620;51.704;7.822;2023-01-26T11:49:34;1.10;99.90
46416;DHT22;32620;51.704;7.822;2023-01-26T11:55:01;1.10;99.90
46416;DHT22;32620;51.704;7.822;2023-01-26T11:57:45;1.10;99.90
46416;DHT22;32620;51.704;7.822;2023-01-26T12:00:21;1.10;99.90
46416;DHT22;32620;51.704;7.822;2023-01-26T12:02:56;1.00;99.90
46416;DHT22;32620;51.704;7.822;2023-01-26T12:05:27;1.10;99.90
46416;DHT22;32620;51.704;7.822;2023-01-26T12:07:58;1.10;99.90
46416;DHT22;32620;51.704;7.822;2023-01-26T12:11:03;1.10;99.90
46416;DHT22;32620;51.704;7.822;2023-01-26T12:13:33;1.10;99.90
46416;DHT22;32620;51.704;7.822;2023-01-26T12:16:07;1.10;99.90
46416;DHT22;32620;51.704;7.822;2023-01-26T12:18:38;1.10;99.90
46416;DHT22;32620;51.704;7.822;2023-01-26T12:21:10;1.10;99.90
46416;DHT22;32620;51.704;7.822;2023-01-26T12:23:56;1.20;99.90
46416;DHT22;32620;51.704;7.822;2023-01-26T12:26:25;1.10;99.90
46416;DHT22;32620;51.704;7.822;2023-01-26T12:29:07;1.10;99.90
46416;DHT22;32620;51.704;7.822;2023-01-26T12:31:59;1.10;99.90
46416;DHT22;32620;51.704;7.822;2023-01-26T12:34:29;1.10;99.90
46416;DHT22;32620;51.704;7.822;2023-01-26T12:37:36;1.10;99.90
46416;DHT22;32620;51.704;7.822;2023-01-26T12:40:50;1.10;99.90
46416;DHT22;32620;51.704;7.822;2023-01-26T12:43:55;1.10;99.90
46416;DHT22;32620;51.704;7.822;2023-01-26T12:46:07;1.20;99.90
46416;DHT22;32620;51.704;7.822;2023-01-26T12:48:41;1.20;99.90
46416;DHT22;32620;51.704;7.822;2023-01-26T12:51:12;1.20;99.90
46416;DHT22;32620;51.704;7.822;2023-01-26T12:53:56;1.20;99.90
46416;DHT22;32620;51.704;7.822;2023-01-26T12:56:33;1.30;99.90
46416;DHT22;32620;51.704;7.822;2023-01-26T12:59:10;1.30;99.90
46416;DHT22;32620;51.704;7.822;2023-01-26T13:01:38;1.20;99.90
46416;DHT22;32620;51.704;7.822;2023-01-26T13:04:10;1.20;99.90
46416;DHT22;32620;51.704;7.822;2023-01-26T13:06:35;1.30;99.90
46416;DHT22;32620;51.704;7.822;2023-01-26T13:09:24;1.20;99.90
46416;DHT22;32620;51.704;7.822;2023-01-26T13:11:53;1.30;99.90
46416;DHT22;32620;51.704;7.822;2023-01-26T13:19:54;1.30;99.90
46416;DHT22;32620;51.704;7.822;2023-01-26T13:27:57;1.30;99.90
46416;DHT22;32620;51.704;7.822;2023-01-26T13:30:28;1.40;99.90
46416;DHT22;32620;51.704;7.822;2023-01-26T13:33:08;1.30;99.90
46416;DHT22;32620;51.704;7.822;2023-01-26T13:35:35;1.30;99.90
46416;DHT22;32620;51.704;7.822;2023-01-26T13:38:09;1.30;99.90
46416;DHT22;32620;51.704;7.822;2023-01-26T13:40:39;1.30;99.90
46416;DHT22;32620;51.704;7.822;2023-01-26T13:44:10;1.40;99.90
46416;DHT22;32620;51.704;7.822;2023-01-26T13:46:09;1.40;99.90
46416;DHT22;32620;51.704;7.822;2023-01-26T13:51:25;1.40;99.90
46416;DHT22;32620;51.704;7.822;2023-01-26T13:54:10;1.40;99.90
46416;DHT22;32620;51.704;7.822;2023-01-26T13:56:38;1.40;99.90
46416;DHT22;32620;51.704;7.822;2023-01-26T13:59:14;1.50;99.90
46416;DHT22;32620;51.704;7.822;2023-01-26T14:01:49;1.50;99.90
46416;DHT22;32620;51.704;7.822;2023-01-26T14:04:18;1.50;99.90
46416;DHT22;32620;51.704;7.822;2023-01-26T14:07:19;1.50;99.90
46416;DHT22;32620;51.704;7.822;2023-01-26T14:09:44;1.50;99.90
46416;DHT22;32620;51.704;7.822;2023-01-26T14:12:18;1.50;99.90
46416;DHT22;32620;51.704;7.822;2023-01-26T14:14:51;1.50;99.90
46416;DHT22;32620;51.704;7.822;2023-01-26T14:17:35;1.50;99.90
46416;DHT22;32620;51.704;7.822;2023-01-26T14:20:05;1.50;99.90
46416;DHT22;32620;51.704;7.822;2023-01-26T14:22:41;1.50;99.90
46416;DHT22;32620;51.704;7.822;2023-01-26T14:25:09;1.50;99.90
46416;DHT22;32620;51.704;7.822;2023-01-26T14:27:38;1.60;99.90
46416;DHT22;32620;51.704;7.822;2023-01-26T14:30:25;1.60;99.90
46416;DHT22;32620;51.704;7.822;2023-01-26T14:33:12;1.60;99.90
46416;DHT22;32620;51.704;7.822;2023-01-26T14:35:38;1.70;99.90
46416;DHT22;32620;51.704;7.822;2023-01-26T14:40:51;1.70;99.90
46416;DHT22;32620;51.704;7.822;2023-01-26T14:43:17;1.70;99.90
46416;DHT22;32620;51.704;7.822;2023-01-26T14:45:47;1.70;99.90
46416;DHT22;32620;51.704;7.822;2023-01-26T14:48:17;1.80;99.90
46416;DHT22;32620;51.704;7.822;2023-01-26T14:50:45;1.70;99.90
46416;DHT22;32620;51.704;7.822;2023-01-26T14:53:19;1.70;99.90
46416;DHT22;32620;51.704;7.822;2023-01-26T14:55:46;1.70;99.90
46416;DHT22;32620;51.704;7.822;2023-01-26T14:58:18;1.70;99.90
46416;DHT22;32620;51.704;7.822;2023-01-26T15:00:47;1.70;99.90
46416;DHT22;32620;51.704;7.822;2023-01-26T15:03:21;1.80;99.90
46416;DHT22;32620;51.704;7.822;2023-01-26T15:05:47;1.80;99.90
46416;DHT22;32620;51.704;7.822;2023-01-26T15:08:19;1.90;99.90
46416;DHT22;32620;51.704;7.822;2023-01-26T15:11:01;1.80;99.90
46416;DHT22;32620;51.704;7.822;2023-01-26T15:13:51;1.80;99.90
46416;DHT22;32620;51.704;7.822;2023-01-26T15:16:20;1.90;99.90
46416;DHT22;32620;51.704;7.822;2023-01-26T15:18:57;1.90;99.90
46416;DHT22;32620;51.704;7.822;2023-01-26T15:21:30;1.90;99.90
46416;DHT22;32620;51.704;7.822;2023-01-26T15:23:57;1.90;99.90
46416;DHT22;32620;51.704;7.822;2023-01-26T15:26:28;1.90;99.90
46416;DHT22;32620;51.704;7.822;2023-01-26T15:28:57;1.90;99.90
46416;DHT22;32620;51.704;7.822;2023-01-26T15:31:34;1.90;99.90
46416;DHT22;32620;51.704;7.822;2023-01-26T15:34:04;1.90;99.90
46416;DHT22;32620;51.704;7.822;2023-01-26T15:36:34;1.90;99.90
46416;DHT22;32620;51.704;7.822;2023-01-26T15:39:13;1.90;99.90
46416;DHT22;32620;51.704;7.822;2023-01-26T15:41:41;2.00;99.90
46416;DHT22;32620;51.704;7.822;2023-01-26T15:44:16;1.90;99.90
46416;DHT22;32620;51.704;7.822;2023-01-26T15:46:42;1.90;99.90
46416;DHT22;32620;51.704;7.822;2023-01-26T15:49:09;1.90;99.90
46416;DHT22;32620;51.704;7.822;2023-01-26T15:51:36;1.90;99.90
46416;DHT22;32620;51.704;7.822;2023-01-26T15:54:02;1.90;99.90
46416;DHT22;32620;51.704;7.822;2023-01-26T15:56:28;1.90;99.90
46416;DHT22;32620;51.704;7.822;2023-01-26T15:58:55;2.00;99.90
46416;DHT22;32620;51.704;7.822;2023-01-26T16:01:21;2.00;99.90
46416;DHT22;32620;51.704;7.822;2023-01-26T16:03:49;2.00;99.90
46416;DHT22;32620;51.704;7.822;2023-01-26T16:06:22;2.00;99.90
46416;DHT22;32620;51.704;7.822;2023-01-26T16:08:48;2.00;99.90
46416;DHT22;32620;51.704;7.822;2023-01-26T16:11:14;2.00;99.90
46416;DHT22;32620;51.704;7.822;2023-01-26T16:13:40;2.00;99.90
46416;DHT22;32620;51.704;7.822;2023-01-26T16:16:10;2.00;99.90
46416;DHT22;32620;51.704;7.822;2023-01-26T16:18:36;2.00;99.90
46416;DHT22;32620;51.704;7.822;2023-01-26T16:21:12;2.00;99.90
46416;DHT22;32620;51.704;7.822;2023-01-26T16:23:39;2.00;99.90
46416;DHT22;32620;51.704;7.822;2023-01-26T16:26:04;2.00;99.90
46416;DHT22;32620;51.704;7.822;2023-01-26T16:28:32;2.10;99.90
46416;DHT22;32620;51.704;7.822;2023-01-26T16:30:58;2.00;99.90
46416;DHT22;32620;51.704;7.822;2023-01-26T16:33:23;2.10;99.90
46416;DHT22;32620;51.704;7.822;2023-01-26T16:35:49;2.00;99.90
46416;DHT22;32620;51.704;7.822;2023-01-26T16:38:14;2.10;99.90
46416;DHT22;32620;51.704;7.822;2023-01-26T16:40:42;2.00;99.90
46416;DHT22;32620;51.704;7.822;2023-01-26T16:43:19;2.10;99.90
46416;DHT22;32620;51.704;7.822;2023-01-26T16:45:45;2.10;99.90
46416;DHT22;32620;51.704;7.822;2023-01-26T16:48:13;2.10;99.90
46416;DHT22;32620;51.704;7.822;2023-01-26T16:50:40;2.10;99.90
46416;DHT22;32620;51.704;7.822;2023-01-26T16:53:21;2.10;99.90